Time;durP1;ratioP1;P1;durP2;ratioP2;P2;SDS_P1;SDS_P2;PMS_P1;PMS_P2;Temp;Humidity;BMP_temperature;BMP_pressure;BME280_temperature;BME280_humidity;BME280_pressure;Samples;Min_cycle;Max_cycle;Signal;HPM_P1;HPM_P2
2022/10/18 00:01:26;;;;;;;8.38;4.35;;;11.70;90.10;;;;;;1850726;75;21095;-56
2022/10/18 00:03:55;;;;;;;7.62;4.62;;;11.70;90.10;;;;;;1891635;76;21054;-55
2022/10/18 00:06:24;;;;;;;7.25;5.05;;;11.70;90.10;;;;;;1891625;75;21047;-56
2022/10/18 00:08:53;;;;;;;9.60;4.65;;;11.70;89.80;;;;;;1891674;76;21035;-56
2022/10/18 00:11:22;;;;;;;6.80;4.45;;;11.60;89.70;;;;;;1891562;76;21018;-56
2022/10/18 00:13:52;;;;;;;6.20;4.35;;;11.60;90.00;;;;;;1891483;75;21104;-56
2022/10/18 00:16:21;;;;;;;6.12;4.70;;;11.60;90.00;;;;;;1891652;76;21084;-54
2022/10/18 00:18:50;;;;;;;7.50;4.67;;;11.60;89.90;;;;;;1891604;76;21034;-55
2022/10/18 00:21:21;;;;;;;6.60;4.37;;;11.50;90.10;;;;;;1891505;75;21522;-56
2022/10/18 00:23:52;;;;;;;5.83;4.28;;;11.60;90.20;;;;;;1891613;75;21159;-55
2022/10/18 00:26:23;;;;;;;8.50;4.62;;;11.50;90.30;;;;;;1891572;76;21034;-56
2022/10/18 00:28:58;;;;;;;7.25;4.50;;;11.60;90.40;;;;;;1891566;75;21022;-55
2022/10/18 00:31:30;;;;;;;7.92;5.28;;;11.60;90.40;;;;;;1891792;76;21100;-56
2022/10/18 00:34:02;;;;;;;8.05;4.80;;;11.70;90.50;;;;;;1891526;76;21124;-57
2022/10/18 00:36:36;;;;;;;7.12;4.40;;;11.70;90.50;;;;;;1891229;75;21445;-57
2022/10/18 00:39:07;;;;;;;7.60;4.50;;;11.70;90.50;;;;;;1891581;76;21038;-55
2022/10/18 00:41:36;;;;;;;7.87;4.72;;;11.80;90.50;;;;;;1891524;76;21010;-54
2022/10/18 00:44:14;;;;;;;7.95;5.08;;;11.70;90.40;;;;;;1891516;76;21100;-55
2022/10/18 00:46:45;;;;;;;8.98;4.28;;;11.70;90.50;;;;;;1891585;76;21014;-56
2022/10/18 00:49:29;;;;;;;6.78;4.70;;;11.70;90.60;;;;;;1891540;76;21112;-54
2022/10/18 00:52:04;;;;;;;6.33;4.83;;;11.80;90.70;;;;;;1891388;75;21132;-55
2022/10/18 00:54:35;;;;;;;6.67;4.35;;;11.80;90.70;;;;;;1890559;75;21052;-54
2022/10/18 00:57:05;;;;;;;12.07;4.47;;;11.80;90.70;;;;;;1891648;76;20990;-57
2022/10/18 00:59:35;;;;;;;6.22;4.80;;;11.80;90.80;;;;;;1891699;76;21018;-57
2022/10/18 01:02:05;;;;;;;8.13;4.60;;;11.80;90.80;;;;;;1889708;75;21108;-56
2022/10/18 01:04:34;;;;;;;6.08;4.45;;;11.80;90.90;;;;;;1872868;77;21118;-56
2022/10/18 01:07:18;;;;;;;6.72;5.35;;;11.80;91.00;;;;;;1872752;76;21015;-55
2022/10/18 01:10:01;;;;;;;7.75;4.47;;;11.70;91.00;;;;;;1872469;76;21018;-56
2022/10/18 01:12:36;;;;;;;7.42;5.17;;;11.70;90.90;;;;;;1872768;76;21215;-55
2022/10/18 01:15:12;;;;;;;;;;;11.70;90.90;;;;;;1875186;76;21039;-55
2022/10/18 01:17:53;;;;;;;8.43;4.55;;;11.70;91.00;;;;;;1872785;76;20099;-54
2022/10/18 01:20:58;;;;;;;12.37;5.00;;;11.60;90.90;;;;;;1872420;76;21058;-56
2022/10/18 01:23:54;;;;;;;6.85;4.80;;;11.60;90.90;;;;;;1872928;77;21062;-55
2022/10/18 01:26:38;;;;;;;7.17;4.62;;;11.50;90.90;;;;;;1872762;76;21042;-55
2022/10/18 01:29:33;;;;;;;7.17;5.22;;;11.50;91.00;;;;;;1872410;76;21055;-56
2022/10/18 01:32:05;;;;;;;9.05;5.30;;;11.40;91.00;;;;;;1872751;77;21125;-56
2022/10/18 01:34:36;;;;;;;9.43;4.45;;;11.40;91.10;;;;;;1872664;76;21042;-56
2022/10/18 01:37:08;;;;;;;9.10;4.83;;;11.40;91.10;;;;;;1872792;77;21446;-55
2022/10/18 01:39:40;;;;;;;6.75;4.08;;;11.40;91.20;;;;;;1872788;76;21101;-54
2022/10/18 01:42:12;;;;;;;7.20;5.03;;;11.30;91.20;;;;;;1872768;77;21101;-55
2022/10/18 01:44:43;;;;;;;6.47;4.35;;;11.30;91.30;;;;;;1872832;77;21061;-53
2022/10/18 01:47:15;;;;;;;10.25;4.90;;;11.30;91.40;;;;;;1872825;77;21043;-55
2022/10/18 01:49:44;;;;;;;6.40;4.83;;;11.30;91.30;;;;;;1872687;76;21031;-56
2022/10/18 01:52:16;;;;;;;8.43;4.15;;;11.30;91.40;;;;;;1872855;77;21089;-56
2022/10/18 01:54:48;;;;;;;6.25;4.22;;;11.30;91.50;;;;;;1872736;76;21039;-54
2022/10/18 01:57:40;;;;;;;9.48;5.40;;;11.30;91.60;;;;;;1872775;77;21011;-54
2022/10/18 02:00:18;;;;;;;8.00;4.78;;;11.30;91.60;;;;;;1872752;77;21489;-54
2022/10/18 02:03:02;;;;;;;9.18;4.83;;;11.30;91.70;;;;;;1868007;76;21180;-54
2022/10/18 02:05:40;;;;;;;7.80;4.22;;;11.30;91.50;;;;;;1847122;78;21069;-53
2022/10/18 02:08:30;;;;;;;6.33;4.40;;;11.20;91.50;;;;;;1845257;78;21026;-55
2022/10/18 02:11:07;;;;;;;9.98;4.87;;;11.20;91.60;;;;;;1846922;78;21503;-55
2022/10/18 02:13:42;;;;;;;8.78;4.95;;;11.20;91.60;;;;;;1845976;78;21131;-55
2022/10/18 02:16:25;;;;;;;8.63;4.70;;;11.20;91.50;;;;;;1847346;78;21159;-55
2022/10/18 02:19:06;;;;;;;7.62;4.90;;;11.10;91.40;;;;;;1846947;78;21544;-55
2022/10/18 02:21:38;;;;;;;9.15;5.17;;;11.10;91.50;;;;;;1845517;78;21045;-55
2022/10/18 02:24:08;;;;;;;8.50;4.80;;;11.00;91.50;;;;;;1847047;78;21041;-55
2022/10/18 02:26:37;;;;;;;9.58;4.42;;;11.00;91.50;;;;;;1846910;77;21500;-56
2022/10/18 02:29:06;;;;;;;7.60;5.05;;;11.00;91.50;;;;;;1846863;78;21552;-54
2022/10/18 02:31:43;;;;;;;6.97;4.58;;;11.00;91.60;;;;;;1846902;78;21036;-56
2022/10/18 02:34:27;;;;;;;6.50;4.83;;;11.00;91.60;;;;;;1847019;78;21013;-54
2022/10/18 02:37:01;;;;;;;13.58;4.97;;;11.00;91.60;;;;;;1845945;78;21022;-56
2022/10/18 02:39:32;;;;;;;9.90;5.58;;;11.00;91.60;;;;;;1846939;78;21018;-53
2022/10/18 02:42:08;;;;;;;12.47;5.95;;;11.00;91.60;;;;;;1846962;78;21096;-55
2022/10/18 02:44:35;;;;;;;8.10;4.85;;;11.00;91.60;;;;;;1845828;78;21512;-56
2022/10/18 02:47:04;;;;;;;7.05;5.42;;;11.00;91.70;;;;;;1847128;77;21087;-55
2022/10/18 02:49:33;;;;;;;9.80;5.22;;;11.00;91.70;;;;;;1847071;78;21029;-53
2022/10/18 02:52:03;;;;;;;7.50;4.85;;;11.00;91.60;;;;;;1847040;78;21013;-55
2022/10/18 02:54:32;;;;;;;7.58;5.40;;;10.90;91.70;;;;;;1846987;78;21073;-55
2022/10/18 02:57:01;;;;;;;10.32;5.00;;;10.90;91.70;;;;;;1847000;78;21098;-54
2022/10/18 02:59:30;;;;;;;7.62;5.37;;;11.00;91.80;;;;;;1847013;78;21025;-55
2022/10/18 03:01:59;;;;;;;11.48;5.22;;;11.00;91.70;;;;;;1847020;78;21117;-56
2022/10/18 03:04:29;;;;;;;7.92;4.45;;;11.00;91.80;;;;;;1863157;75;21485;-56
2022/10/18 03:06:58;;;;;;;11.55;4.80;;;11.00;91.70;;;;;;1872790;77;21023;-55
2022/10/18 03:09:27;;;;;;;6.10;4.62;;;11.00;91.70;;;;;;1872939;77;21139;-54
2022/10/18 03:11:56;;;;;;;11.18;4.75;;;11.00;91.70;;;;;;1872807;77;21011;-55
2022/10/18 03:14:25;;;;;;;14.35;5.67;;;11.10;91.70;;;;;;1872954;76;21019;-55
2022/10/18 03:16:55;;;;;;;7.08;4.95;;;11.10;91.80;;;;;;1872936;76;21074;-54
2022/10/18 03:19:24;;;;;;;6.95;4.60;;;11.10;91.70;;;;;;1872760;77;21116;-54
2022/10/18 03:21:54;;;;;;;9.68;5.12;;;11.10;91.50;;;;;;1872781;77;21015;-51
2022/10/18 03:24:23;;;;;;;7.00;4.20;;;11.10;91.40;;;;;;1872799;77;20995;-54
2022/10/18 03:26:52;;;;;;;10.30;5.00;;;11.10;91.40;;;;;;1872880;77;21106;-53
2022/10/18 03:29:22;;;;;;;6.87;4.95;;;11.10;91.40;;;;;;1872877;76;21486;-54
2022/10/18 03:31:51;;;;;;;7.40;5.17;;;11.10;91.70;;;;;;1872751;77;21090;-54
2022/10/18 03:34:20;;;;;;;8.55;4.72;;;11.10;91.50;;;;;;1872803;76;21552;-53
2022/10/18 03:36:49;;;;;;;9.15;5.20;;;11.10;91.50;;;;;;1873011;77;21011;-56
2022/10/18 03:39:18;;;;;;;6.62;5.15;;;11.10;91.50;;;;;;1872993;77;21078;-55
2022/10/18 03:41:47;;;;;;;11.00;5.22;;;11.10;91.50;;;;;;1872891;75;21413;-55
2022/10/18 03:44:16;;;;;;;12.50;5.90;;;11.10;91.40;;;;;;1872875;76;21030;-54
2022/10/18 03:46:45;;;;;;;4.95;4.45;;;11.10;91.50;;;;;;1872765;77;21015;-55
2022/10/18 03:49:14;;;;;;;9.35;5.62;;;11.10;91.50;;;;;;1872755;77;21437;-53
2022/10/18 03:51:43;;;;;;;9.85;5.17;;;11.10;91.60;;;;;;1872902;77;21089;-55
2022/10/18 03:54:12;;;;;;;7.70;5.22;;;11.00;91.10;;;;;;1872914;77;21035;-54
2022/10/18 03:56:41;;;;;;;10.10;6.20;;;11.00;91.40;;;;;;1872752;76;21136;-55
2022/10/18 03:59:11;;;;;;;11.40;6.30;;;10.90;91.50;;;;;;1872787;76;21055;-53
2022/10/18 04:01:41;;;;;;;7.90;5.35;;;10.90;91.20;;;;;;1872813;77;21047;-55
2022/10/18 04:04:10;;;;;;;8.05;5.45;;;10.80;91.20;;;;;;1872683;76;21035;-54
2022/10/18 04:06:40;;;;;;;9.23;6.05;;;10.70;91.20;;;;;;1872748;77;21063;-55
2022/10/18 04:09:09;;;;;;;7.10;5.67;;;10.60;91.00;;;;;;1872718;77;21030;-56
2022/10/18 04:11:38;;;;;;;10.43;6.80;;;10.60;91.40;;;;;;1872760;77;21089;-54
2022/10/18 04:14:07;;;;;;;7.53;5.42;;;10.60;91.70;;;;;;1872821;77;21023;-54
2022/10/18 04:16:36;;;;;;;7.85;6.08;;;10.60;91.30;;;;;;1872846;76;21093;-55
2022/10/18 04:19:05;;;;;;;10.90;5.85;;;10.60;91.60;;;;;;1872776;77;21015;-54
2022/10/18 04:21:35;;;;;;;13.03;5.95;;;10.60;91.70;;;;;;1872826;77;21089;-53
2022/10/18 04:24:05;;;;;;;8.98;5.83;;;10.70;91.80;;;;;;1872718;77;21148;-55
2022/10/18 04:26:34;;;;;;;11.75;6.90;;;10.80;91.80;;;;;;1872713;76;21034;-55
2022/10/18 04:29:03;;;;;;;22.42;14.18;;;10.90;91.80;;;;;;1872657;77;20995;-55
2022/10/18 04:31:32;;;;;;;11.93;6.75;;;10.90;91.70;;;;;;1837535;78;21091;-53
2022/10/18 04:34:07;;;;;;;9.63;6.05;;;11.00;91.50;;;;;;1872928;77;21180;-55
2022/10/18 04:36:36;;;;;;;8.25;5.20;;;11.00;91.20;;;;;;1872691;77;21133;-55
2022/10/18 04:39:05;;;;;;;10.70;5.50;;;10.90;91.30;;;;;;1872715;77;21105;-54
2022/10/18 04:41:35;;;;;;;7.58;5.90;;;10.90;91.40;;;;;;1872777;77;21030;-54
2022/10/18 04:44:04;;;;;;;10.35;5.25;;;11.00;91.60;;;;;;1872908;77;21112;-55
2022/10/18 04:46:33;;;;;;;8.53;5.58;;;11.00;91.40;;;;;;1872762;76;21163;-56
2022/10/18 04:49:02;;;;;;;11.93;6.17;;;11.00;91.60;;;;;;1872799;77;21015;-54
2022/10/18 04:51:32;;;;;;;12.45;6.20;;;11.10;91.50;;;;;;1872785;77;21120;-56
2022/10/18 04:54:01;;;;;;;6.92;5.12;;;11.00;91.50;;;;;;1872835;77;21039;-56
2022/10/18 04:56:30;;;;;;;13.70;5.90;;;11.10;91.50;;;;;;1872747;77;21031;-56
2022/10/18 04:58:59;;;;;;;17.40;6.12;;;11.10;91.50;;;;;;1872735;77;21089;-55
2022/10/18 05:01:29;;;;;;;12.98;6.53;;;11.20;91.40;;;;;;1872742;77;21051;-54
2022/10/18 05:03:58;;;;;;;15.25;6.83;;;11.20;91.30;;;;;;1872782;77;21043;-55
2022/10/18 05:06:28;;;;;;;13.55;7.53;;;11.10;91.10;;;;;;1849078;76;21057;-56
2022/10/18 05:08:57;;;;;;;15.68;7.58;;;11.10;91.10;;;;;;1847013;76;21135;-55
2022/10/18 05:11:26;;;;;;;16.23;6.22;;;11.00;91.20;;;;;;1847051;78;21054;-55
2022/10/18 05:13:55;;;;;;;12.60;6.15;;;11.00;91.30;;;;;;1847011;76;21131;-55
2022/10/18 05:16:25;;;;;;;10.38;6.37;;;10.90;91.20;;;;;;1846797;76;21058;-55
2022/10/18 05:18:54;;;;;;;10.35;6.28;;;10.90;91.50;;;;;;1846816;78;21170;-53
2022/10/18 05:21:23;;;;;;;16.02;8.95;;;10.90;91.50;;;;;;1846798;78;21440;-55
2022/10/18 05:23:56;;;;;;;12.47;7.25;;;11.00;91.30;;;;;;1846888;78;21085;-51
2022/10/18 05:26:25;;;;;;;15.48;7.20;;;11.00;91.30;;;;;;1846883;77;21103;-54
2022/10/18 05:28:54;;;;;;;13.83;7.28;;;11.00;91.30;;;;;;1846847;78;21116;-55
2022/10/18 05:31:23;;;;;;;17.30;8.28;;;11.00;91.40;;;;;;1846810;78;21183;-55
2022/10/18 05:33:53;;;;;;;13.43;7.15;;;11.00;91.50;;;;;;1846880;77;20993;-54
2022/10/18 05:36:22;;;;;;;19.98;8.38;;;11.00;91.40;;;;;;1846819;78;21077;-55
2022/10/18 05:38:57;;;;;;;17.87;7.37;;;11.00;91.50;;;;;;1846919;78;21056;-53
2022/10/18 05:41:26;;;;;;;11.57;7.53;;;11.10;91.50;;;;;;1846804;78;21062;-53
2022/10/18 05:43:55;;;;;;;15.80;8.23;;;11.10;91.30;;;;;;1846807;78;21105;-55
2022/10/18 05:46:24;;;;;;;18.70;8.23;;;11.10;91.30;;;;;;1846820;77;21014;-54
2022/10/18 05:48:53;;;;;;;20.32;9.38;;;11.10;91.30;;;;;;1846824;76;21115;-56
2022/10/18 05:51:23;;;;;;;17.80;8.23;;;11.10;91.40;;;;;;1846969;77;21033;-55
2022/10/18 05:53:53;;;;;;;22.70;9.53;;;11.10;91.60;;;;;;1846812;78;21074;-55
2022/10/18 05:56:22;;;;;;;16.95;9.15;;;11.10;91.60;;;;;;1846927;77;21068;-56
2022/10/18 05:58:52;;;;;;;16.48;8.50;;;11.10;91.60;;;;;;1846875;78;21061;-55
2022/10/18 06:01:21;;;;;;;14.73;8.18;;;11.10;91.70;;;;;;1846886;78;21460;-56
2022/10/18 06:03:51;;;;;;;14.85;9.28;;;11.20;91.70;;;;;;1846881;78;21054;-54
2022/10/18 06:06:21;;;;;;;18.15;9.20;;;11.20;91.70;;;;;;1873262;75;21058;-56
2022/10/18 06:08:50;;;;;;;19.52;9.50;;;11.20;91.70;;;;;;1891300;75;21007;-54
2022/10/18 06:11:20;;;;;;;16.55;9.18;;;11.20;91.60;;;;;;1891641;76;21042;-55
2022/10/18 06:13:51;;;;;;;18.15;10.05;;;11.30;91.70;;;;;;1891590;76;21111;-55
2022/10/18 06:16:22;;;;;;;18.73;9.25;;;11.30;91.70;;;;;;1856042;77;21123;-55
2022/10/18 06:18:53;;;;;;;16.50;9.90;;;11.30;91.70;;;;;;1846355;78;21020;-53
2022/10/18 06:21:24;;;;;;;17.55;8.85;;;11.30;91.70;;;;;;1846385;78;21119;-54
2022/10/18 06:23:55;;;;;;;21.17;9.45;;;11.30;91.80;;;;;;1846454;78;21082;-55
2022/10/18 06:26:25;;;;;;;14.23;8.18;;;11.30;91.90;;;;;;1844959;78;21483;-55
2022/10/18 06:28:53;;;;;;;16.17;9.70;;;11.30;92.10;;;;;;1846282;78;21130;-56
2022/10/18 06:31:23;;;;;;;21.05;11.20;;;11.30;91.90;;;;;;1846419;78;21076;-50
2022/10/18 06:33:51;;;;;;;20.85;12.68;;;11.30;92.00;;;;;;1856017;77;21092;-55
2022/10/18 06:36:21;;;;;;;28.57;11.70;;;11.30;92.00;;;;;;1855951;77;21476;-56
2022/10/18 06:38:51;;;;;;;24.25;10.90;;;11.30;92.00;;;;;;1855907;77;21096;-55
2022/10/18 06:41:21;;;;;;;18.50;10.50;;;11.30;92.10;;;;;;1856007;77;21119;-54
2022/10/18 06:43:57;;;;;;;18.45;10.10;;;11.30;92.00;;;;;;1855820;77;21152;-56
2022/10/18 06:46:26;;;;;;;19.50;10.18;;;11.40;92.00;;;;;;1855942;77;21057;-54
2022/10/18 06:48:56;;;;;;;20.80;10.08;;;11.40;92.20;;;;;;1855930;77;21115;-55
2022/10/18 06:51:25;;;;;;;24.10;11.08;;;11.50;92.30;;;;;;1855907;77;21022;-55
2022/10/18 06:53:55;;;;;;;14.98;10.23;;;11.50;92.20;;;;;;1855932;77;21045;-54
2022/10/18 06:56:24;;;;;;;21.40;12.10;;;11.50;92.20;;;;;;1855853;77;21111;-55
2022/10/18 06:58:53;;;;;;;18.60;10.68;;;11.60;92.20;;;;;;1855961;77;20993;-55
2022/10/18 07:01:22;;;;;;;20.12;11.12;;;11.60;92.30;;;;;;1855942;77;21061;-54
2022/10/18 07:03:53;;;;;;;18.60;10.93;;;11.60;92.10;;;;;;1855926;77;21045;-54
2022/10/18 07:06:23;;;;;;;19.60;11.33;;;11.70;92.10;;;;;;1855013;77;21089;-56
2022/10/18 07:08:53;;;;;;;21.48;11.12;;;11.70;92.20;;;;;;1853101;76;21451;-54
2022/10/18 07:11:25;;;;;;;24.00;11.22;;;11.80;92.30;;;;;;1853197;77;21154;-55
2022/10/18 07:13:59;;;;;;;19.60;11.22;;;11.80;92.20;;;;;;1853168;77;21103;-56
2022/10/18 07:16:27;;;;;;;21.70;10.82;;;11.80;92.30;;;;;;1853214;76;21058;-55
2022/10/18 07:18:56;;;;;;;18.35;10.32;;;11.80;92.30;;;;;;1853199;77;21009;-55
2022/10/18 07:21:26;;;;;;;19.87;11.40;;;11.70;92.20;;;;;;1853139;77;21033;-56
2022/10/18 07:23:56;;;;;;;26.65;12.23;;;11.80;92.40;;;;;;1853269;77;21033;-56
2022/10/18 07:26:30;;;;;;;24.80;13.08;;;11.80;92.30;;;;;;1853178;77;21046;-52
2022/10/18 07:29:07;;;;;;;19.48;12.35;;;11.80;92.40;;;;;;1839990;78;21073;-56
2022/10/18 07:31:40;;;;;;;21.45;12.00;;;11.80;92.50;;;;;;1835689;78;21040;-54
2022/10/18 07:34:12;;;;;;;22.62;11.80;;;11.90;92.50;;;;;;1853200;77;21013;-54
2022/10/18 07:36:41;;;;;;;23.25;11.73;;;11.90;92.40;;;;;;1853185;77;21041;-54
2022/10/18 07:39:10;;;;;;;20.62;11.85;;;11.80;92.30;;;;;;1853308;77;21017;-54
2022/10/18 07:41:39;;;;;;;21.90;11.30;;;11.90;92.50;;;;;;1853131;76;21115;-54
2022/10/18 07:44:08;;;;;;;22.58;12.65;;;11.90;92.50;;;;;;1853251;77;20994;-58
2022/10/18 07:46:37;;;;;;;20.43;11.63;;;11.90;92.60;;;;;;1853168;77;21006;-54
2022/10/18 07:49:07;;;;;;;28.70;12.58;;;11.90;92.50;;;;;;1853195;77;21505;-55
2022/10/18 07:51:36;;;;;;;20.72;12.15;;;12.00;92.70;;;;;;1853165;76;21101;-55
2022/10/18 07:54:05;;;;;;;17.48;10.10;;;12.00;92.60;;;;;;1853100;77;21115;-54
2022/10/18 07:56:34;;;;;;;19.42;11.25;;;12.00;92.60;;;;;;1853210;77;21131;-55
2022/10/18 07:59:03;;;;;;;20.68;11.93;;;12.10;92.60;;;;;;1853267;77;21237;-54
2022/10/18 08:01:34;;;;;;;20.92;13.13;;;12.20;92.50;;;;;;1853359;77;21056;-54
2022/10/18 08:04:02;;;;;;;23.12;12.80;;;12.20;92.50;;;;;;1853261;77;21073;-55
2022/10/18 08:06:32;;;;;;;22.27;13.78;;;12.20;92.60;;;;;;1853220;77;21013;-56
2022/10/18 08:09:01;;;;;;;21.12;11.43;;;12.20;92.60;;;;;;1841206;78;21106;-54
2022/10/18 08:11:30;;;;;;;19.67;11.38;;;12.20;92.50;;;;;;1852082;76;21049;-55
2022/10/18 08:13:59;;;;;;;23.02;11.68;;;12.30;93.70;;;;;;1852558;77;21081;-52
2022/10/18 08:16:30;;;;;;;16.42;10.65;;;12.50;93.50;;;;;;1852656;76;21029;-52
2022/10/18 08:18:59;;;;;;;18.40;11.45;;;12.70;93.70;;;;;;1852508;77;21053;-52
2022/10/18 08:21:34;;;;;;;13.93;9.58;;;12.90;93.30;;;;;;1852667;77;21041;-53
2022/10/18 08:24:03;;;;;;;16.30;11.00;;;13.00;92.70;;;;;;1840484;78;21132;-56
2022/10/18 08:26:32;;;;;;;16.82;10.48;;;13.10;93.10;;;;;;1852525;77;21096;-56
2022/10/18 08:29:01;;;;;;;16.93;11.15;;;13.20;93.00;;;;;;1852534;77;21125;-55
2022/10/18 08:31:30;;;;;;;20.25;9.50;;;13.40;92.90;;;;;;1852475;77;21111;-54
2022/10/18 08:33:59;;;;;;;16.65;11.38;;;13.50;92.90;;;;;;1840300;78;21158;-55
2022/10/18 08:36:28;;;;;;;17.80;12.20;;;13.60;92.70;;;;;;1852542;77;21123;-53
2022/10/18 08:38:57;;;;;;;20.43;11.65;;;13.60;92.40;;;;;;1852755;77;21025;-54
2022/10/18 08:41:44;;;;;;;18.20;11.43;;;13.70;91.90;;;;;;1840293;78;21136;-50
2022/10/18 08:44:28;;;;;;;15.45;11.12;;;13.60;91.60;;;;;;1840501;78;21075;-50
2022/10/18 08:47:05;;;;;;;15.18;9.40;;;13.50;91.80;;;;;;1852513;77;21083;-52
2022/10/18 08:49:42;;;;;;;15.88;9.90;;;13.40;91.80;;;;;;1840338;78;21088;-57
2022/10/18 08:52:29;;;;;;;19.37;9.48;;;13.40;91.80;;;;;;1840537;78;21064;-57
2022/10/18 08:55:16;;;;;;;15.25;10.13;;;13.30;91.70;;;;;;1840425;78;21186;-57
2022/10/18 08:57:46;;;;;;;22.02;11.65;;;13.30;91.70;;;;;;1851768;77;21065;-55
2022/10/18 09:00:18;;;;;;;13.35;7.97;;;13.30;91.90;;;;;;1852549;77;21179;-57
2022/10/18 09:03:07;;;;;;;18.20;11.15;;;13.30;91.80;;;;;;1840215;78;21128;-55
2022/10/18 09:06:11;;;;;;;20.25;8.85;;;13.30;91.80;;;;;;1840397;78;21100;-55
2022/10/18 09:08:48;;;;;;;13.30;8.78;;;13.40;91.80;;;;;;1832382;78;21146;-55
2022/10/18 11:15:50;;;;;;;11.65;7.78;;;15.60;85.30;;;;;;1958150;73;25832;-57
2022/10/18 11:18:34;;;;;;;12.30;6.72;;;15.60;87.20;;;;;;1916687;75;21132;-51
2022/10/18 11:21:14;;;;;;;8.50;5.90;;;15.70;87.00;;;;;;1916073;75;21116;-57
2022/10/18 11:23:44;;;;;;;7.42;4.80;;;15.80;87.40;;;;;;1917658;75;21143;-55
2022/10/18 11:26:19;;;;;;;6.70;5.30;;;15.80;87.80;;;;;;1917723;75;21070;-53
2022/10/18 11:29:15;;;;;;;8.25;5.72;;;15.80;87.00;;;;;;1917557;75;21094;-51
2022/10/18 11:31:50;;;;;;;7.75;5.80;;;15.90;86.40;;;;;;1863433;76;21042;-55
2022/10/18 11:34:24;;;;;;;9.55;5.97;;;15.90;86.50;;;;;;1850279;77;21556;-56
2022/10/18 11:36:59;;;;;;;9.08;5.97;;;16.00;86.80;;;;;;1859725;76;21106;-53
2022/10/18 11:39:50;;;;;;;9.65;7.00;;;16.00;86.00;;;;;;1910853;75;21465;-52
2022/10/18 11:42:25;;;;;;;9.53;7.55;;;16.00;85.60;;;;;;1917528;75;21047;-49
2022/10/18 11:45:09;;;;;;;9.35;6.42;;;16.00;85.90;;;;;;1917041;75;21082;-52
2022/10/18 11:48:15;;;;;;;8.38;6.95;;;16.00;86.00;;;;;;1914551;75;21086;-55
2022/10/18 11:51:02;;;;;;;9.20;6.37;;;16.10;86.60;;;;;;1915251;75;21145;-54
2022/10/18 11:53:36;;;;;;;10.05;7.17;;;16.10;85.30;;;;;;1911102;75;21130;-51
2022/10/18 11:56:24;;;;;;;7.58;5.92;;;16.10;85.80;;;;;;1915629;75;21560;-53
2022/10/18 11:59:08;;;;;;;7.37;6.55;;;16.20;85.60;;;;;;1918863;74;21535;-54
2022/10/18 12:01:40;;;;;;;8.00;6.00;;;16.20;85.60;;;;;;1915196;74;21046;-52
2022/10/18 12:04:17;;;;;;;6.95;6.25;;;16.20;85.60;;;;;;1907126;75;22159;-55
2022/10/18 12:06:49;;;;;;;7.25;6.47;;;16.20;85.30;;;;;;1895900;75;21086;-54
2022/10/18 12:09:32;;;;;;;9.20;6.72;;;16.20;85.40;;;;;;1916909;75;21039;-56
2022/10/18 12:12:04;;;;;;;8.88;6.40;;;16.20;85.30;;;;;;1914516;74;21090;-57
2022/10/18 12:14:39;;;;;;;8.80;6.60;;;16.20;85.20;;;;;;1917103;74;21560;-54
2022/10/18 12:17:11;;;;;;;6.65;5.95;;;16.20;85.60;;;;;;1924721;74;21151;-52
2022/10/18 12:19:42;;;;;;;6.22;5.62;;;16.30;85.20;;;;;;1918753;74;21114;-54
2022/10/18 12:22:13;;;;;;;12.55;8.30;;;16.30;85.10;;;;;;1924308;74;21034;-55
2022/10/18 12:24:43;;;;;;;7.33;6.62;;;16.30;84.60;;;;;;1923342;74;21038;-55
2022/10/18 12:27:14;;;;;;;5.95;5.22;;;16.30;84.80;;;;;;1923445;74;21127;-55
2022/10/18 12:29:49;;;;;;;7.40;6.37;;;16.30;84.50;;;;;;1923750;74;21081;-55
2022/10/18 12:32:21;;;;;;;7.53;4.83;;;16.30;84.60;;;;;;1923109;74;21066;-57
2022/10/18 12:34:53;;;;;;;6.87;5.87;;;16.20;84.30;;;;;;1923480;74;21010;-57
2022/10/18 12:37:43;;;;;;;6.20;4.92;;;16.20;84.30;;;;;;1923869;74;21100;-58
2022/10/18 12:40:31;;;;;;;12.43;5.87;;;16.20;84.30;;;;;;1924755;74;21497;-56
2022/10/18 12:43:02;;;;;;;6.53;5.60;;;16.20;84.30;;;;;;1924765;74;21046;-56
2022/10/18 12:45:34;;;;;;;6.30;4.83;;;16.10;84.60;;;;;;1924154;74;21003;-55
2022/10/18 12:48:08;;;;;;;6.72;5.03;;;16.20;84.70;;;;;;1924736;74;21097;-54
2022/10/18 12:50:39;;;;;;;7.40;5.83;;;16.20;84.50;;;;;;1924713;74;21042;-55
2022/10/18 12:53:17;;;;;;;7.22;5.65;;;16.20;84.40;;;;;;1924771;74;21140;-55
2022/10/18 12:55:50;;;;;;;16.23;7.20;;;16.20;84.60;;;;;;1924630;74;20999;-55
2022/10/18 12:58:24;;;;;;;11.60;5.53;;;16.20;84.70;;;;;;1924850;74;21515;-55
2022/10/18 13:00:56;;;;;;;8.43;6.55;;;16.20;84.80;;;;;;1924659;74;21023;-56
2022/10/18 13:03:39;;;;;;;8.30;5.05;;;16.20;84.80;;;;;;1924611;74;21035;-55
2022/10/18 13:06:09;;;;;;;7.47;4.97;;;16.20;84.50;;;;;;1924663;74;21061;-55
2022/10/18 13:08:41;;;;;;;6.35;5.03;;;16.20;84.50;;;;;;1924649;74;21076;-55
2022/10/18 13:11:12;;;;;;;6.15;4.87;;;16.20;84.50;;;;;;1924514;74;21421;-56
2022/10/18 13:14:07;;;;;;;5.53;4.58;;;16.20;84.50;;;;;;1924566;74;21022;-56
2022/10/18 13:16:54;;;;;;;9.25;6.33;;;16.20;84.40;;;;;;1924450;74;21062;-55
2022/10/18 13:19:38;;;;;;;5.05;4.10;;;16.20;84.50;;;;;;1924304;74;21048;-56
2022/10/18 13:22:39;;;;;;;13.15;5.05;;;16.10;84.50;;;;;;1923862;74;21072;-56
2022/10/18 13:25:28;;;;;;;8.20;5.12;;;16.10;84.70;;;;;;1924559;74;21117;-56
2022/10/18 13:28:03;;;;;;;6.20;4.45;;;16.10;84.50;;;;;;1921440;74;21051;-56
2022/10/18 13:30:52;;;;;;;9.83;5.55;;;16.00;84.40;;;;;;1909873;74;21030;-55
2022/10/18 13:33:30;;;;;;;5.80;4.28;;;16.00;84.80;;;;;;1923453;74;20991;-55
2022/10/18 13:36:02;;;;;;;8.58;4.42;;;16.00;84.80;;;;;;1924585;74;21032;-56
2022/10/18 13:38:40;;;;;;;7.47;4.58;;;16.00;84.80;;;;;;1924569;74;21007;-56
2022/10/18 13:41:18;;;;;;;9.18;5.08;;;15.90;84.90;;;;;;1924727;74;21164;-57
2022/10/18 13:44:11;;;;;;;8.50;4.83;;;15.90;85.00;;;;;;1924772;74;21011;-55
2022/10/18 13:46:45;;;;;;;10.23;5.15;;;15.90;85.20;;;;;;1924624;74;21027;-54
2022/10/18 13:49:26;;;;;;;8.18;4.90;;;15.90;85.40;;;;;;1924819;74;21098;-56
2022/10/18 13:52:06;;;;;;;11.75;6.12;;;15.90;85.30;;;;;;1924096;74;21015;-54
2022/10/18 13:55:05;;;;;;;8.38;5.25;;;15.80;85.30;;;;;;1922112;74;21014;-55
2022/10/18 13:57:55;;;;;;;8.05;6.00;;;15.80;85.40;;;;;;1924623;74;21034;-55
2022/10/18 14:00:36;;;;;;;6.33;4.37;;;15.80;85.60;;;;;;1923550;74;21465;-56
2022/10/18 14:03:23;;;;;;;7.47;4.83;;;15.70;85.20;;;;;;1924555;74;21022;-55
2022/10/18 14:06:03;;;;;;;7.42;4.83;;;15.70;85.70;;;;;;1924709;74;21007;-56
2022/10/18 14:08:47;;;;;;;7.85;6.15;;;15.60;85.70;;;;;;1924370;74;21039;-55
2022/10/18 14:11:43;;;;;;;6.08;5.33;;;15.60;85.80;;;;;;1924576;74;21022;-55
2022/10/18 14:14:37;;;;;;;6.33;5.00;;;15.50;85.80;;;;;;1924648;74;21042;-55
2022/10/18 14:17:31;;;;;;;17.43;6.33;;;15.50;86.00;;;;;;1924973;74;21038;-54
2022/10/18 14:20:38;;;;;;;11.57;7.35;;;15.40;86.10;;;;;;1924718;74;21078;-55
2022/10/18 14:23:25;;;;;;;9.33;5.53;;;15.40;86.30;;;;;;1924776;74;21449;-52
2022/10/18 14:25:59;;;;;;;8.23;6.00;;;15.30;86.40;;;;;;1924711;74;21027;-55
2022/10/18 14:28:29;;;;;;;11.45;7.55;;;15.20;86.60;;;;;;1918525;74;21043;-53
2022/10/18 14:31:08;;;;;;;15.65;8.53;;;15.10;86.70;;;;;;1924616;74;21133;-55
2022/10/18 14:33:39;;;;;;;14.55;8.28;;;15.10;87.00;;;;;;1923824;74;21043;-54
2022/10/18 14:36:14;;;;;;;14.93;9.00;;;15.10;87.30;;;;;;1924718;74;21006;-51
2022/10/18 14:38:59;;;;;;;;;;;15.00;87.50;;;;;;1927487;74;21022;-53
2022/10/18 14:41:37;;;;;;;15.58;7.55;;;15.00;87.70;;;;;;1924571;74;20104;-53
2022/10/18 14:44:18;;;;;;;13.83;8.18;;;14.90;87.60;;;;;;1924694;74;21150;-53
2022/10/18 14:46:50;;;;;;;18.30;9.10;;;14.90;88.10;;;;;;1924534;74;21042;-51
2022/10/18 14:49:20;;;;;;;12.82;8.28;;;15.00;88.30;;;;;;1924454;74;22141;-51
2022/10/18 14:51:52;;;;;;;17.17;10.03;;;14.90;88.40;;;;;;1924717;74;21023;-54
2022/10/18 14:54:25;;;;;;;19.90;9.93;;;14.90;88.70;;;;;;1923816;74;20987;-54
2022/10/18 14:56:54;;;;;;;17.05;10.13;;;14.90;88.90;;;;;;1924524;74;21449;-50
2022/10/18 14:59:36;;;;;;;14.70;9.20;;;14.90;89.10;;;;;;1924669;74;21034;-54
2022/10/18 15:02:14;;;;;;;19.40;11.93;;;14.80;89.20;;;;;;1923952;74;21043;-53
2022/10/18 15:04:44;;;;;;;32.00;18.65;;;14.90;89.30;;;;;;1924565;74;21072;-53
2022/10/18 15:07:16;;;;;;;41.28;22.50;;;14.70;89.30;;;;;;1924541;74;21092;-50
2022/10/18 15:09:46;;;;;;;30.70;18.20;;;14.70;89.40;;;;;;1924568;74;20970;-53
2022/10/18 15:12:17;;;;;;;30.88;18.62;;;14.60;89.50;;;;;;1924573;74;21129;-54
2022/10/18 15:14:47;;;;;;;38.80;23.95;;;14.60;89.80;;;;;;1924666;74;21086;-54
2022/10/18 15:17:22;;;;;;;74.77;35.73;;;14.60;90.00;;;;;;1924606;74;21100;-54
2022/10/18 15:19:56;;;;;;;56.63;31.05;;;14.50;90.00;;;;;;1924588;74;21090;-53